Aérodrome :







RETROUVEZ-NOUS SUR...

 
LOGIN :

S'inscrire | Disclaimer

   EN    FR    IT 

 









Légende :    VFR   VFR Marginal   IFR   IFR Intensif   IFR Très Intensif
Visi : 
Plafond : 
>= 8 km
>= 3000ft
5 à 8 km
1000 à 3000 ft
1500m à 5 km
500 à 1000 ft
800 à 1500m
200 à 500 ft
< 800m
< 200 ft
Symboles :   Orages  Brouillard  Fortes neiges  Fortes précipitations  Vent > 20 kt






- Altitude de l'aérodrome : 38 ft
- Code IATA : YMH


CYMH - Mary's Harbour

DERNIER METAR :
  • 210000Z AUTO 02008G15KT 9SM OVC032 01/M01 A3011 RMK PCPN 0.8MM PAST HR SLP199

METARs EXPIRÉS :
  • 202308Z AUTO 02011G16KT 9SM BKN030 OVC036 01/M00 A3010 RMK SLP196
  • 202257Z AUTO 02009G15KT 9SM -RA FEW012 BKN030 OVC036 01/M00 A3011 RMK SLP197
  • 202231Z AUTO 02009G16KT 9SM SCT014 BKN029 OVC034 01/M00 A3009 RMK SLP192
  • 202200Z AUTO 01009G15KT 9SM OVC012 01/M00 A3009 RMK SLP191

TAF TAF CYMH
Valide du 20 à 20h jusqu'au 21 à 04h UTC


201943Z 2020/2104 36012G22KT P6SM SCT020 OVC030
TEMPO 2020/2104 5SM -SNRA BR OVC020
BECMG 2020/2022 03012G22KT RMK FCST BASED ON AUTO OBS. NXT FCST BY 210200Z



MET'MAP, la Météo Aéronautique d'un coup d'oeil ! - Copyright ORBIFLY Décembre 2007 - Disclaimer

ORBIFLY MET'MAP TEAM :

Programmation & Développement : Alexandra Zaïnal
Conception & Développement : Baudouin d'Aumeries
Co-Programmation & Développement : Marc-Olivier Méhu
Soutien technique & logistique : Manuel Goepfert

Contact : metmap@orbifly.com




SOURCES & CREDITS :

   NOAA